sensor_id;sensor_type;location;lat;lon;timestamp;P1;durP1;ratioP1;P2;durP2;ratioP2
55493;SDS011;41355;50.390;19.096;2022-09-01T00:00:47;7.00;;;2.38;;
55493;SDS011;41355;50.390;19.096;2022-09-01T00:03:15;8.23;;;1.93;;
55493;SDS011;41355;50.390;19.096;2022-09-01T00:05:42;5.63;;;2.10;;
55493;SDS011;41355;50.390;19.096;2022-09-01T00:08:10;6.80;;;2.22;;
55493;SDS011;41355;50.390;19.096;2022-09-01T00:10:36;6.60;;;1.77;;
55493;SDS011;41355;50.390;19.096;2022-09-01T00:13:04;5.32;;;1.90;;
55493;SDS011;41355;50.390;19.096;2022-09-01T00:15:32;7.60;;;2.00;;
55493;SDS011;41355;50.390;19.096;2022-09-01T00:17:58;5.15;;;1.95;;
55493;SDS011;41355;50.390;19.096;2022-09-01T00:20:24;6.22;;;2.10;;
55493;SDS011;41355;50.390;19.096;2022-09-01T00:22:50;8.40;;;1.95;;
55493;SDS011;41355;50.390;19.096;2022-09-01T00:25:16;5.63;;;1.60;;
55493;SDS011;41355;50.390;19.096;2022-09-01T00:27:45;4.30;;;1.52;;
55493;SDS011;41355;50.390;19.096;2022-09-01T00:30:11;6.80;;;1.70;;
55493;SDS011;41355;50.390;19.096;2022-09-01T00:32:38;4.90;;;2.03;;
55493;SDS011;41355;50.390;19.096;2022-09-01T00:35:04;4.32;;;1.80;;
55493;SDS011;41355;50.390;19.096;2022-09-01T00:37:30;4.88;;;1.90;;
55493;SDS011;41355;50.390;19.096;2022-09-01T00:39:56;7.78;;;2.17;;
55493;SDS011;41355;50.390;19.096;2022-09-01T00:42:22;4.78;;;1.70;;
55493;SDS011;41355;50.390;19.096;2022-09-01T00:44:49;7.05;;;2.10;;
55493;SDS011;41355;50.390;19.096;2022-09-01T00:47:15;4.50;;;1.80;;
55493;SDS011;41355;50.390;19.096;2022-09-01T00:49:42;4.28;;;2.03;;
55493;SDS011;41355;50.390;19.096;2022-09-01T00:52:11;4.65;;;1.90;;
55493;SDS011;41355;50.390;19.096;2022-09-01T00:54:40;4.15;;;1.70;;
55493;SDS011;41355;50.390;19.096;2022-09-01T00:57:08;4.63;;;1.67;;
55493;SDS011;41355;50.390;19.096;2022-09-01T00:59:34;5.03;;;2.03;;
55493;SDS011;41355;50.390;19.096;2022-09-01T01:02:01;5.57;;;1.70;;
55493;SDS011;41355;50.390;19.096;2022-09-01T01:04:27;5.28;;;2.10;;
55493;SDS011;41355;50.390;19.096;2022-09-01T01:06:54;6.80;;;1.85;;
55493;SDS011;41355;50.390;19.096;2022-09-01T01:09:29;4.65;;;2.03;;
55493;SDS011;41355;50.390;19.096;2022-09-01T01:11:55;5.30;;;2.08;;
55493;SDS011;41355;50.390;19.096;2022-09-01T01:14:24;7.15;;;2.17;;
55493;SDS011;41355;50.390;19.096;2022-09-01T01:16:53;16.30;;;2.42;;
55493;SDS011;41355;50.390;19.096;2022-09-01T01:25:22;5.78;;;2.03;;
55493;SDS011;41355;50.390;19.096;2022-09-01T01:27:49;5.43;;;2.00;;
55493;SDS011;41355;50.390;19.096;2022-09-01T01:30:16;5.30;;;1.92;;
55493;SDS011;41355;50.390;19.096;2022-09-01T01:32:45;4.35;;;2.13;;
55493;SDS011;41355;50.390;19.096;2022-09-01T01:35:13;5.43;;;1.98;;
55493;SDS011;41355;50.390;19.096;2022-09-01T01:37:45;4.90;;;1.85;;
55493;SDS011;41355;50.390;19.096;2022-09-01T01:40:14;4.78;;;1.85;;
55493;SDS011;41355;50.390;19.096;2022-09-01T01:42:43;3.63;;;1.70;;
55493;SDS011;41355;50.390;19.096;2022-09-01T01:45:11;3.55;;;1.60;;
55493;SDS011;41355;50.390;19.096;2022-09-01T01:47:37;3.95;;;1.80;;
55493;SDS011;41355;50.390;19.096;2022-09-01T01:50:04;6.38;;;1.85;;
55493;SDS011;41355;50.390;19.096;2022-09-01T01:52:33;6.47;;;2.67;;
55493;SDS011;41355;50.390;19.096;2022-09-01T01:54:59;5.88;;;2.00;;
55493;SDS011;41355;50.390;19.096;2022-09-01T01:57:25;5.82;;;2.20;;
55493;SDS011;41355;50.390;19.096;2022-09-01T01:59:54;4.28;;;1.95;;
55493;SDS011;41355;50.390;19.096;2022-09-01T02:02:20;5.13;;;2.35;;
55493;SDS011;41355;50.390;19.096;2022-09-01T02:04:46;6.55;;;2.10;;
55493;SDS011;41355;50.390;19.096;2022-09-01T02:07:12;6.85;;;2.20;;
55493;SDS011;41355;50.390;19.096;2022-09-01T02:09:38;5.55;;;2.10;;
55493;SDS011;41355;50.390;19.096;2022-09-01T02:12:05;4.57;;;1.85;;
55493;SDS011;41355;50.390;19.096;2022-09-01T02:14:31;5.25;;;1.88;;
55493;SDS011;41355;50.390;19.096;2022-09-01T02:16:58;5.97;;;2.50;;
55493;SDS011;41355;50.390;19.096;2022-09-01T02:19:25;7.40;;;2.30;;
55493;SDS011;41355;50.390;19.096;2022-09-01T02:21:52;4.93;;;2.30;;
55493;SDS011;41355;50.390;19.096;2022-09-01T02:24:23;7.00;;;2.30;;
55493;SDS011;41355;50.390;19.096;2022-09-01T02:26:50;5.50;;;2.08;;
55493;SDS011;41355;50.390;19.096;2022-09-01T02:29:17;6.93;;;2.25;;
55493;SDS011;41355;50.390;19.096;2022-09-01T02:31:46;8.20;;;1.95;;
55493;SDS011;41355;50.390;19.096;2022-09-01T02:34:13;4.20;;;1.65;;
55493;SDS011;41355;50.390;19.096;2022-09-01T02:36:41;6.32;;;1.67;;
55493;SDS011;41355;50.390;19.096;2022-09-01T02:39:12;6.57;;;1.80;;
55493;SDS011;41355;50.390;19.096;2022-09-01T02:41:38;7.25;;;1.90;;
55493;SDS011;41355;50.390;19.096;2022-09-01T02:44:05;6.50;;;2.08;;
55493;SDS011;41355;50.390;19.096;2022-09-01T02:46:39;9.27;;;1.98;;
55493;SDS011;41355;50.390;19.096;2022-09-01T02:49:07;5.53;;;1.95;;
55493;SDS011;41355;50.390;19.096;2022-09-01T02:51:39;6.45;;;2.00;;
55493;SDS011;41355;50.390;19.096;2022-09-01T02:54:05;4.95;;;2.10;;
55493;SDS011;41355;50.390;19.096;2022-09-01T02:56:31;6.35;;;2.13;;
55493;SDS011;41355;50.390;19.096;2022-09-01T02:58:57;7.68;;;2.22;;
55493;SDS011;41355;50.390;19.096;2022-09-01T03:01:27;4.38;;;1.88;;
55493;SDS011;41355;50.390;19.096;2022-09-01T03:03:54;5.25;;;2.03;;
55493;SDS011;41355;50.390;19.096;2022-09-01T03:06:21;8.18;;;2.25;;
55493;SDS011;41355;50.390;19.096;2022-09-01T03:08:51;4.80;;;2.25;;
55493;SDS011;41355;50.390;19.096;2022-09-01T03:11:17;5.97;;;2.15;;
55493;SDS011;41355;50.390;19.096;2022-09-01T03:13:43;5.80;;;2.28;;
55493;SDS011;41355;50.390;19.096;2022-09-01T03:16:10;7.60;;;2.10;;
55493;SDS011;41355;50.390;19.096;2022-09-01T03:18:36;6.28;;;2.50;;
55493;SDS011;41355;50.390;19.096;2022-09-01T03:21:02;5.47;;;2.33;;
55493;SDS011;41355;50.390;19.096;2022-09-01T03:23:29;7.43;;;2.35;;
55493;SDS011;41355;50.390;19.096;2022-09-01T03:25:55;7.72;;;2.30;;
55493;SDS011;41355;50.390;19.096;2022-09-01T03:28:22;6.45;;;2.53;;
55493;SDS011;41355;50.390;19.096;2022-09-01T03:30:49;9.30;;;2.70;;
55493;SDS011;41355;50.390;19.096;2022-09-01T03:33:16;8.38;;;2.60;;
55493;SDS011;41355;50.390;19.096;2022-09-01T03:35:43;6.30;;;2.65;;
55493;SDS011;41355;50.390;19.096;2022-09-01T03:38:09;7.32;;;2.78;;
55493;SDS011;41355;50.390;19.096;2022-09-01T03:40:37;6.40;;;2.97;;
55493;SDS011;41355;50.390;19.096;2022-09-01T03:43:04;6.57;;;3.28;;
55493;SDS011;41355;50.390;19.096;2022-09-01T03:45:31;6.00;;;3.17;;
55493;SDS011;41355;50.390;19.096;2022-09-01T03:48:02;5.82;;;2.83;;
55493;SDS011;41355;50.390;19.096;2022-09-01T03:50:33;7.72;;;3.17;;
55493;SDS011;41355;50.390;19.096;2022-09-01T03:53:00;9.18;;;3.25;;
55493;SDS011;41355;50.390;19.096;2022-09-01T03:55:30;6.93;;;2.42;;
55493;SDS011;41355;50.390;19.096;2022-09-01T03:58:05;7.20;;;3.13;;
55493;SDS011;41355;50.390;19.096;2022-09-01T04:00:32;6.45;;;2.75;;
55493;SDS011;41355;50.390;19.096;2022-09-01T04:03:00;7.47;;;2.83;;
55493;SDS011;41355;50.390;19.096;2022-09-01T04:05:27;5.22;;;2.40;;
55493;SDS011;41355;50.390;19.096;2022-09-01T04:07:57;7.80;;;2.72;;
55493;SDS011;41355;50.390;19.096;2022-09-01T04:10:28;7.72;;;2.63;;
55493;SDS011;41355;50.390;19.096;2022-09-01T04:12:56;8.05;;;2.92;;
55493;SDS011;41355;50.390;19.096;2022-09-01T04:15:23;8.15;;;2.60;;
55493;SDS011;41355;50.390;19.096;2022-09-01T04:17:49;7.65;;;2.70;;
55493;SDS011;41355;50.390;19.096;2022-09-01T04:20:35;5.05;;;2.50;;
55493;SDS011;41355;50.390;19.096;2022-09-01T04:23:15;7.88;;;2.90;;
55493;SDS011;41355;50.390;19.096;2022-09-01T04:25:47;7.32;;;2.83;;
55493;SDS011;41355;50.390;19.096;2022-09-01T04:28:14;5.47;;;2.58;;
55493;SDS011;41355;50.390;19.096;2022-09-01T04:30:48;8.45;;;3.00;;
55493;SDS011;41355;50.390;19.096;2022-09-01T04:33:14;6.38;;;2.63;;
55493;SDS011;41355;50.390;19.096;2022-09-01T04:35:41;7.43;;;2.85;;
55493;SDS011;41355;50.390;19.096;2022-09-01T04:38:08;8.35;;;2.67;;
55493;SDS011;41355;50.390;19.096;2022-09-01T04:40:39;7.22;;;3.05;;
55493;SDS011;41355;50.390;19.096;2022-09-01T04:43:05;7.65;;;2.75;;
55493;SDS011;41355;50.390;19.096;2022-09-01T04:45:35;6.78;;;2.55;;
55493;SDS011;41355;50.390;19.096;2022-09-01T04:48:02;7.00;;;2.65;;
55493;SDS011;41355;50.390;19.096;2022-09-01T04:50:29;9.38;;;2.70;;
55493;SDS011;41355;50.390;19.096;2022-09-01T04:52:57;8.18;;;2.78;;
55493;SDS011;41355;50.390;19.096;2022-09-01T04:55:25;7.15;;;2.60;;
55493;SDS011;41355;50.390;19.096;2022-09-01T04:57:52;9.65;;;2.67;;
55493;SDS011;41355;50.390;19.096;2022-09-01T05:00:19;6.80;;;2.78;;
55493;SDS011;41355;50.390;19.096;2022-09-01T05:02:49;7.55;;;2.50;;
55493;SDS011;41355;50.390;19.096;2022-09-01T05:05:18;5.82;;;1.92;;
55493;SDS011;41355;50.390;19.096;2022-09-01T05:07:44;7.63;;;2.65;;
55493;SDS011;41355;50.390;19.096;2022-09-01T05:10:11;5.55;;;2.53;;
55493;SDS011;41355;50.390;19.096;2022-09-01T05:12:37;6.18;;;2.20;;
55493;SDS011;41355;50.390;19.096;2022-09-01T05:15:05;5.95;;;2.50;;
55493;SDS011;41355;50.390;19.096;2022-09-01T05:17:33;6.40;;;2.47;;
55493;SDS011;41355;50.390;19.096;2022-09-01T05:20:02;5.32;;;2.40;;
55493;SDS011;41355;50.390;19.096;2022-09-01T05:22:28;6.00;;;2.10;;
55493;SDS011;41355;50.390;19.096;2022-09-01T05:24:56;5.38;;;2.15;;
55493;SDS011;41355;50.390;19.096;2022-09-01T05:27:41;5.32;;;2.00;;
55493;SDS011;41355;50.390;19.096;2022-09-01T05:30:18;5.88;;;2.25;;
55493;SDS011;41355;50.390;19.096;2022-09-01T05:32:44;7.15;;;2.30;;
55493;SDS011;41355;50.390;19.096;2022-09-01T05:35:13;5.03;;;1.88;;
55493;SDS011;41355;50.390;19.096;2022-09-01T05:37:39;4.97;;;1.90;;
55493;SDS011;41355;50.390;19.096;2022-09-01T05:40:08;6.05;;;2.35;;
55493;SDS011;41355;50.390;19.096;2022-09-01T05:42:40;5.28;;;2.30;;
55493;SDS011;41355;50.390;19.096;2022-09-01T05:45:07;6.00;;;2.60;;
55493;SDS011;41355;50.390;19.096;2022-09-01T05:47:35;6.70;;;3.05;;
55493;SDS011;41355;50.390;19.096;2022-09-01T05:50:02;6.38;;;2.42;;
55493;SDS011;41355;50.390;19.096;2022-09-01T05:52:31;7.20;;;2.10;;
55493;SDS011;41355;50.390;19.096;2022-09-01T05:54:58;7.93;;;2.55;;
55493;SDS011;41355;50.390;19.096;2022-09-01T05:57:25;6.05;;;2.20;;
55493;SDS011;41355;50.390;19.096;2022-09-01T05:59:51;6.18;;;2.10;;
55493;SDS011;41355;50.390;19.096;2022-09-01T06:02:21;5.75;;;2.63;;
55493;SDS011;41355;50.390;19.096;2022-09-01T06:04:47;5.35;;;2.08;;
55493;SDS011;41355;50.390;19.096;2022-09-01T06:07:14;4.63;;;1.95;;
55493;SDS011;41355;50.390;19.096;2022-09-01T06:09:42;7.95;;;1.90;;
55493;SDS011;41355;50.390;19.096;2022-09-01T06:12:10;6.82;;;2.25;;
55493;SDS011;41355;50.390;19.096;2022-09-01T06:14:41;6.80;;;2.20;;
55493;SDS011;41355;50.390;19.096;2022-09-01T06:17:08;5.47;;;2.20;;
55493;SDS011;41355;50.390;19.096;2022-09-01T06:19:41;9.02;;;3.05;;
55493;SDS011;41355;50.390;19.096;2022-09-01T06:22:07;5.13;;;1.85;;
55493;SDS011;41355;50.390;19.096;2022-09-01T06:24:34;7.05;;;2.42;;
55493;SDS011;41355;50.390;19.096;2022-09-01T06:27:01;5.97;;;2.13;;
55493;SDS011;41355;50.390;19.096;2022-09-01T06:29:31;4.30;;;1.80;;
55493;SDS011;41355;50.390;19.096;2022-09-01T06:31:58;12.63;;;2.05;;
55493;SDS011;41355;50.390;19.096;2022-09-01T06:34:26;5.00;;;2.08;;
55493;SDS011;41355;50.390;19.096;2022-09-01T06:36:52;5.25;;;1.85;;
55493;SDS011;41355;50.390;19.096;2022-09-01T06:39:21;5.63;;;1.70;;
55493;SDS011;41355;50.390;19.096;2022-09-01T06:41:50;5.68;;;1.98;;
55493;SDS011;41355;50.390;19.096;2022-09-01T06:44:20;6.68;;;2.00;;
55493;SDS011;41355;50.390;19.096;2022-09-01T06:46:50;4.90;;;1.90;;
55493;SDS011;41355;50.390;19.096;2022-09-01T06:49:17;5.55;;;1.88;;
55493;SDS011;41355;50.390;19.096;2022-09-01T06:51:57;4.25;;;1.83;;
55493;SDS011;41355;50.390;19.096;2022-09-01T06:54:23;4.43;;;1.80;;
55493;SDS011;41355;50.390;19.096;2022-09-01T06:56:49;10.25;;;2.03;;
55493;SDS011;41355;50.390;19.096;2022-09-01T06:59:17;3.72;;;1.73;;
55493;SDS011;41355;50.390;19.096;2022-09-01T07:01:43;4.18;;;1.90;;
55493;SDS011;41355;50.390;19.096;2022-09-01T07:04:12;6.00;;;1.83;;
55493;SDS011;41355;50.390;19.096;2022-09-01T07:06:44;6.25;;;1.92;;
55493;SDS011;41355;50.390;19.096;2022-09-01T07:09:14;4.28;;;1.52;;
55493;SDS011;41355;50.390;19.096;2022-09-01T07:11:40;4.22;;;1.70;;
55493;SDS011;41355;50.390;19.096;2022-09-01T07:14:06;4.95;;;1.70;;
55493;SDS011;41355;50.390;19.096;2022-09-01T07:16:35;6.40;;;1.83;;
55493;SDS011;41355;50.390;19.096;2022-09-01T07:19:05;5.55;;;1.40;;
55493;SDS011;41355;50.390;19.096;2022-09-01T07:21:37;3.20;;;1.40;;
55493;SDS011;41355;50.390;19.096;2022-09-01T07:24:06;5.57;;;1.63;;
55493;SDS011;41355;50.390;19.096;2022-09-01T07:26:33;4.78;;;1.48;;
55493;SDS011;41355;50.390;19.096;2022-09-01T07:29:00;2.92;;;1.30;;
55493;SDS011;41355;50.390;19.096;2022-09-01T07:31:31;4.57;;;1.20;;
55493;SDS011;41355;50.390;19.096;2022-09-01T07:33:59;2.70;;;1.20;;
55493;SDS011;41355;50.390;19.096;2022-09-01T07:36:28;4.43;;;1.55;;
55493;SDS011;41355;50.390;19.096;2022-09-01T07:38:54;3.15;;;1.40;;
55493;SDS011;41355;50.390;19.096;2022-09-01T07:41:21;8.52;;;2.58;;
55493;SDS011;41355;50.390;19.096;2022-09-01T07:43:48;2.63;;;1.15;;
55493;SDS011;41355;50.390;19.096;2022-09-01T07:46:17;5.35;;;1.33;;
55493;SDS011;41355;50.390;19.096;2022-09-01T07:48:43;4.25;;;1.10;;
55493;SDS011;41355;50.390;19.096;2022-09-01T07:51:13;2.38;;;1.05;;
55493;SDS011;41355;50.390;19.096;2022-09-01T07:53:43;2.63;;;1.17;;
55493;SDS011;41355;50.390;19.096;2022-09-01T07:56:10;3.13;;;1.00;;
55493;SDS011;41355;50.390;19.096;2022-09-01T07:58:37;4.95;;;1.38;;
55493;SDS011;41355;50.390;19.096;2022-09-01T08:01:06;3.90;;;1.13;;
55493;SDS011;41355;50.390;19.096;2022-09-01T08:03:33;3.90;;;1.30;;
55493;SDS011;41355;50.390;19.096;2022-09-01T08:06:09;4.72;;;1.45;;
55493;SDS011;41355;50.390;19.096;2022-09-01T08:08:36;3.55;;;1.55;;
55493;SDS011;41355;50.390;19.096;2022-09-01T08:11:02;4.18;;;1.10;;
55493;SDS011;41355;50.390;19.096;2022-09-01T08:13:28;4.07;;;1.20;;
55493;SDS011;41355;50.390;19.096;2022-09-01T08:15:54;3.35;;;1.20;;
55493;SDS011;41355;50.390;19.096;2022-09-01T08:18:21;3.00;;;1.20;;
55493;SDS011;41355;50.390;19.096;2022-09-01T08:20:47;3.97;;;1.40;;
55493;SDS011;41355;50.390;19.096;2022-09-01T08:23:14;5.57;;;1.50;;
55493;SDS011;41355;50.390;19.096;2022-09-01T08:25:42;4.72;;;1.42;;
55493;SDS011;41355;50.390;19.096;2022-09-01T08:28:09;6.88;;;1.50;;
55493;SDS011;41355;50.390;19.096;2022-09-01T08:30:36;5.40;;;1.40;;
55493;SDS011;41355;50.390;19.096;2022-09-01T08:33:02;4.97;;;1.20;;
55493;SDS011;41355;50.390;19.096;2022-09-01T08:35:28;2.40;;;1.00;;
55493;SDS011;41355;50.390;19.096;2022-09-01T08:37:55;1.98;;;0.80;;
55493;SDS011;41355;50.390;19.096;2022-09-01T08:40:21;2.20;;;0.85;;
55493;SDS011;41355;50.390;19.096;2022-09-01T08:42:57;2.25;;;0.70;;
55493;SDS011;41355;50.390;19.096;2022-09-01T08:47:57;2.15;;;0.80;;
55493;SDS011;41355;50.390;19.096;2022-09-01T08:50:26;3.65;;;0.98;;
55493;SDS011;41355;50.390;19.096;2022-09-01T08:53:01;1.25;;;0.73;;
55493;SDS011;41355;50.390;19.096;2022-09-01T08:58:40;2.40;;;0.90;;
55493;SDS011;41355;50.390;19.096;2022-09-01T09:01:11;4.22;;;0.80;;
55493;SDS011;41355;50.390;19.096;2022-09-01T09:03:45;1.73;;;0.70;;
55493;SDS011;41355;50.390;19.096;2022-09-01T09:06:19;3.97;;;1.00;;
55493;SDS011;41355;50.390;19.096;2022-09-01T09:16:59;3.60;;;1.00;;
55493;SDS011;41355;50.390;19.096;2022-09-01T09:19:35;3.83;;;0.80;;
55493;SDS011;41355;50.390;19.096;2022-09-01T09:22:05;4.22;;;1.00;;
55493;SDS011;41355;50.390;19.096;2022-09-01T09:29:44;1.52;;;0.68;;
55493;SDS011;41355;50.390;19.096;2022-09-01T09:32:10;2.50;;;0.52;;
55493;SDS011;41355;50.390;19.096;2022-09-01T09:34:38;2.05;;;0.60;;
55493;SDS011;41355;50.390;19.096;2022-09-01T09:42:57;2.75;;;0.80;;
55493;SDS011;41355;50.390;19.096;2022-09-01T09:48:28;1.52;;;0.68;;
55493;SDS011;41355;50.390;19.096;2022-09-01T09:50:54;2.00;;;0.60;;
55493;SDS011;41355;50.390;19.096;2022-09-01T09:53:27;1.77;;;0.70;;
55493;SDS011;41355;50.390;19.096;2022-09-01T09:58:24;2.58;;;0.73;;
55493;SDS011;41355;50.390;19.096;2022-09-01T10:03:52;2.78;;;0.70;;
55493;SDS011;41355;50.390;19.096;2022-09-01T10:06:32;1.70;;;0.47;;
55493;SDS011;41355;50.390;19.096;2022-09-01T10:08:59;1.10;;;0.60;;
55493;SDS011;41355;50.390;19.096;2022-09-01T10:16:59;3.08;;;0.70;;
55493;SDS011;41355;50.390;19.096;2022-09-01T10:19:32;3.05;;;0.90;;
55493;SDS011;41355;50.390;19.096;2022-09-01T10:21:59;1.52;;;0.60;;
55493;SDS011;41355;50.390;19.096;2022-09-01T10:24:31;1.58;;;0.60;;
55493;SDS011;41355;50.390;19.096;2022-09-01T10:27:00;1.77;;;0.57;;
55493;SDS011;41355;50.390;19.096;2022-09-01T10:29:30;1.80;;;0.80;;
55493;SDS011;41355;50.390;19.096;2022-09-01T10:32:00;1.17;;;0.60;;
55493;SDS011;41355;50.390;19.096;2022-09-01T10:34:30;1.15;;;0.60;;
55493;SDS011;41355;50.390;19.096;2022-09-01T10:36:59;2.03;;;0.70;;
55493;SDS011;41355;50.390;19.096;2022-09-01T10:39:25;3.67;;;0.65;;
55493;SDS011;41355;50.390;19.096;2022-09-01T10:41:54;1.63;;;0.70;;
55493;SDS011;41355;50.390;19.096;2022-09-01T10:47:27;4.18;;;0.70;;
55493;SDS011;41355;50.390;19.096;2022-09-01T10:55:06;1.52;;;0.63;;
55493;SDS011;41355;50.390;19.096;2022-09-01T11:08:40;1.05;;;0.50;;
55493;SDS011;41355;50.390;19.096;2022-09-01T11:11:39;2.83;;;0.63;;
55493;SDS011;41355;50.390;19.096;2022-09-01T11:13:57;1.15;;;0.50;;
55493;SDS011;41355;50.390;19.096;2022-09-01T11:18:56;2.42;;;0.90;;
55493;SDS011;41355;50.390;19.096;2022-09-01T11:21:43;1.42;;;0.50;;
55493;SDS011;41355;50.390;19.096;2022-09-01T11:26:54;1.02;;;0.43;;
55493;SDS011;41355;50.390;19.096;2022-09-01T11:32:07;2.83;;;0.65;;
55493;SDS011;41355;50.390;19.096;2022-09-01T11:34:34;0.60;;;0.50;;
55493;SDS011;41355;50.390;19.096;2022-09-01T11:37:09;2.70;;;0.50;;
55493;SDS011;41355;50.390;19.096;2022-09-01T11:39:39;2.38;;;0.52;;
55493;SDS011;41355;50.390;19.096;2022-09-01T11:42:16;1.85;;;0.43;;
55493;SDS011;41355;50.390;19.096;2022-09-01T11:45:05;3.05;;;0.60;;
55493;SDS011;41355;50.390;19.096;2022-09-01T11:47:36;2.28;;;0.50;;
55493;SDS011;41355;50.390;19.096;2022-09-01T11:50:22;3.22;;;1.08;;
55493;SDS011;41355;50.390;19.096;2022-09-01T11:53:07;1.48;;;0.60;;
55493;SDS011;41355;50.390;19.096;2022-09-01T11:55:45;1.15;;;0.50;;
55493;SDS011;41355;50.390;19.096;2022-09-01T11:58:30;1.33;;;0.38;;
55493;SDS011;41355;50.390;19.096;2022-09-01T12:01:10;1.75;;;0.60;;
55493;SDS011;41355;50.390;19.096;2022-09-01T12:03:43;3.15;;;0.55;;
55493;SDS011;41355;50.390;19.096;2022-09-01T12:06:11;2.00;;;0.50;;
55493;SDS011;41355;50.390;19.096;2022-09-01T12:08:49;2.05;;;0.57;;
55493;SDS011;41355;50.390;19.096;2022-09-01T12:11:32;3.90;;;0.65;;
55493;SDS011;41355;50.390;19.096;2022-09-01T12:16:24;2.00;;;0.47;;
55493;SDS011;41355;50.390;19.096;2022-09-01T12:18:51;1.25;;;0.50;;
55493;SDS011;41355;50.390;19.096;2022-09-01T12:21:26;1.15;;;0.50;;
55493;SDS011;41355;50.390;19.096;2022-09-01T12:24:12;1.60;;;0.60;;
55493;SDS011;41355;50.390;19.096;2022-09-01T12:26:46;5.47;;;0.80;;
55493;SDS011;41355;50.390;19.096;2022-09-01T12:29:12;5.03;;;0.95;;
55493;SDS011;41355;50.390;19.096;2022-09-01T12:31:40;1.13;;;0.43;;
55493;SDS011;41355;50.390;19.096;2022-09-01T12:37:21;4.60;;;0.63;;
55493;SDS011;41355;50.390;19.096;2022-09-01T12:39:49;1.70;;;0.70;;
55493;SDS011;41355;50.390;19.096;2022-09-01T12:44:46;1.08;;;0.50;;
55493;SDS011;41355;50.390;19.096;2022-09-01T12:52:45;0.95;;;0.50;;
55493;SDS011;41355;50.390;19.096;2022-09-01T12:55:25;2.05;;;0.45;;
55493;SDS011;41355;50.390;19.096;2022-09-01T12:57:52;1.48;;;0.50;;
55493;SDS011;41355;50.390;19.096;2022-09-01T13:03:03;0.90;;;0.43;;
55493;SDS011;41355;50.390;19.096;2022-09-01T13:08:05;1.95;;;0.50;;
55493;SDS011;41355;50.390;19.096;2022-09-01T13:10:33;1.00;;;0.40;;
55493;SDS011;41355;50.390;19.096;2022-09-01T13:13:03;1.05;;;0.35;;
55493;SDS011;41355;50.390;19.096;2022-09-01T13:15:30;3.47;;;0.50;;
55493;SDS011;41355;50.390;19.096;2022-09-01T13:17:56;2.33;;;0.47;;
55493;SDS011;41355;50.390;19.096;2022-09-01T13:20:22;0.65;;;0.43;;
55493;SDS011;41355;50.390;19.096;2022-09-01T13:22:48;2.05;;;0.50;;
55493;SDS011;41355;50.390;19.096;2022-09-01T13:25:15;1.42;;;0.50;;
55493;SDS011;41355;50.390;19.096;2022-09-01T13:27:43;0.95;;;0.40;;
55493;SDS011;41355;50.390;19.096;2022-09-01T13:30:11;2.67;;;0.40;;
55493;SDS011;41355;50.390;19.096;2022-09-01T13:32:41;1.80;;;0.32;;
55493;SDS011;41355;50.390;19.096;2022-09-01T13:35:10;1.15;;;0.40;;
55493;SDS011;41355;50.390;19.096;2022-09-01T13:37:36;1.55;;;0.40;;
55493;SDS011;41355;50.390;19.096;2022-09-01T13:40:03;2.78;;;0.40;;
55493;SDS011;41355;50.390;19.096;2022-09-01T13:42:34;3.33;;;0.63;;
55493;SDS011;41355;50.390;19.096;2022-09-01T13:45:00;2.05;;;0.88;;
55493;SDS011;41355;50.390;19.096;2022-09-01T13:47:26;2.35;;;0.57;;
55493;SDS011;41355;50.390;19.096;2022-09-01T13:49:52;2.58;;;0.45;;
55493;SDS011;41355;50.390;19.096;2022-09-01T13:52:18;1.27;;;0.52;;
55493;SDS011;41355;50.390;19.096;2022-09-01T13:54:45;1.27;;;0.40;;
55493;SDS011;41355;50.390;19.096;2022-09-01T13:57:11;3.13;;;0.40;;
55493;SDS011;41355;50.390;19.096;2022-09-01T13:59:43;0.85;;;0.30;;
55493;SDS011;41355;50.390;19.096;2022-09-01T14:02:09;1.27;;;0.50;;
55493;SDS011;41355;50.390;19.096;2022-09-01T14:04:35;1.00;;;0.40;;
55493;SDS011;41355;50.390;19.096;2022-09-01T14:07:01;1.38;;;0.40;;
55493;SDS011;41355;50.390;19.096;2022-09-01T14:09:28;0.77;;;0.40;;
55493;SDS011;41355;50.390;19.096;2022-09-01T14:11:55;2.83;;;0.57;;
55493;SDS011;41355;50.390;19.096;2022-09-01T14:14:21;1.30;;;0.40;;
55493;SDS011;41355;50.390;19.096;2022-09-01T14:16:47;1.60;;;0.50;;
55493;SDS011;41355;50.390;19.096;2022-09-01T14:19:14;1.60;;;0.50;;
55493;SDS011;41355;50.390;19.096;2022-09-01T14:21:41;1.13;;;0.40;;
55493;SDS011;41355;50.390;19.096;2022-09-01T14:24:07;1.17;;;0.40;;
55493;SDS011;41355;50.390;19.096;2022-09-01T14:26:34;1.25;;;0.45;;
55493;SDS011;41355;50.390;19.096;2022-09-01T14:29:00;2.25;;;0.50;;
55493;SDS011;41355;50.390;19.096;2022-09-01T14:31:27;0.70;;;0.40;;
55493;SDS011;41355;50.390;19.096;2022-09-01T14:33:56;1.42;;;0.50;;
55493;SDS011;41355;50.390;19.096;2022-09-01T14:36:23;1.70;;;0.40;;
55493;SDS011;41355;50.390;19.096;2022-09-01T14:38:53;1.50;;;0.40;;
55493;SDS011;41355;50.390;19.096;2022-09-01T14:41:20;1.27;;;0.50;;
55493;SDS011;41355;50.390;19.096;2022-09-01T14:43:52;0.68;;;0.20;;
55493;SDS011;41355;50.390;19.096;2022-09-01T14:46:19;0.55;;;0.22;;
55493;SDS011;41355;50.390;19.096;2022-09-01T14:48:47;1.05;;;0.40;;
55493;SDS011;41355;50.390;19.096;2022-09-01T14:51:23;1.65;;;0.50;;
55493;SDS011;41355;50.390;19.096;2022-09-01T14:53:53;1.40;;;0.30;;
55493;SDS011;41355;50.390;19.096;2022-09-01T14:56:20;3.47;;;0.60;;
55493;SDS011;41355;50.390;19.096;2022-09-01T14:58:47;1.38;;;0.40;;
55493;SDS011;41355;50.390;19.096;2022-09-01T15:01:14;1.25;;;0.50;;
55493;SDS011;41355;50.390;19.096;2022-09-01T15:03:41;1.35;;;0.40;;
55493;SDS011;41355;50.390;19.096;2022-09-01T15:06:09;1.38;;;0.38;;
55493;SDS011;41355;50.390;19.096;2022-09-01T15:08:36;1.27;;;0.35;;
55493;SDS011;41355;50.390;19.096;2022-09-01T15:11:02;1.35;;;0.30;;
55493;SDS011;41355;50.390;19.096;2022-09-01T15:13:28;1.77;;;0.50;;
55493;SDS011;41355;50.390;19.096;2022-09-01T15:15:54;1.45;;;0.50;;
55493;SDS011;41355;50.390;19.096;2022-09-01T15:18:20;1.13;;;0.40;;
55493;SDS011;41355;50.390;19.096;2022-09-01T15:20:46;2.97;;;0.60;;
55493;SDS011;41355;50.390;19.096;2022-09-01T15:23:19;0.63;;;0.35;;
55493;SDS011;41355;50.390;19.096;2022-09-01T15:25:46;1.55;;;0.50;;
55493;SDS011;41355;50.390;19.096;2022-09-01T15:28:12;3.65;;;0.43;;
55493;SDS011;41355;50.390;19.096;2022-09-01T15:30:38;1.30;;;0.35;;
55493;SDS011;41355;50.390;19.096;2022-09-01T15:33:05;1.73;;;0.57;;
55493;SDS011;41355;50.390;19.096;2022-09-01T15:35:31;1.42;;;0.47;;
55493;SDS011;41355;50.390;19.096;2022-09-01T15:37:58;3.20;;;0.50;;
55493;SDS011;41355;50.390;19.096;2022-09-01T15:40:24;1.50;;;0.50;;
55493;SDS011;41355;50.390;19.096;2022-09-01T15:42:50;1.05;;;0.40;;
55493;SDS011;41355;50.390;19.096;2022-09-01T15:45:18;1.50;;;0.50;;
55493;SDS011;41355;50.390;19.096;2022-09-01T15:47:44;2.92;;;0.47;;
55493;SDS011;41355;50.390;19.096;2022-09-01T15:50:15;2.13;;;0.50;;
55493;SDS011;41355;50.390;19.096;2022-09-01T15:55:17;2.15;;;0.57;;
55493;SDS011;41355;50.390;19.096;2022-09-01T15:57:43;2.22;;;0.63;;
55493;SDS011;41355;50.390;19.096;2022-09-01T16:00:09;4.15;;;0.60;;
55493;SDS011;41355;50.390;19.096;2022-09-01T16:02:36;2.90;;;0.70;;
55493;SDS011;41355;50.390;19.096;2022-09-01T16:05:02;0.52;;;0.30;;
55493;SDS011;41355;50.390;19.096;2022-09-01T16:07:29;1.33;;;0.30;;
55493;SDS011;41355;50.390;19.096;2022-09-01T16:09:55;1.08;;;0.35;;
55493;SDS011;41355;50.390;19.096;2022-09-01T16:12:22;2.10;;;0.40;;
55493;SDS011;41355;50.390;19.096;2022-09-01T16:14:50;1.38;;;0.52;;